sensor_id;sensor_type;location;lat;lon;timestamp;P1;durP1;ratioP1;P2;durP2;ratioP2
83663;SDS011;73634;47.068;15.426;2024-02-14T00:00:54;5.78;;;1.42;;
83663;SDS011;73634;47.068;15.426;2024-02-14T00:03:21;5.05;;;1.90;;
83663;SDS011;73634;47.068;15.426;2024-02-14T00:05:48;7.60;;;1.85;;
83663;SDS011;73634;47.068;15.426;2024-02-14T00:08:13;6.30;;;1.77;;
83663;SDS011;73634;47.068;15.426;2024-02-14T00:10:39;3.90;;;1.40;;
83663;SDS011;73634;47.068;15.426;2024-02-14T00:13:05;6.15;;;1.98;;
83663;SDS011;73634;47.068;15.426;2024-02-14T00:15:30;5.45;;;1.70;;
83663;SDS011;73634;47.068;15.426;2024-02-14T00:17:56;5.20;;;2.25;;
83663;SDS011;73634;47.068;15.426;2024-02-14T00:22:54;6.10;;;1.92;;
83663;SDS011;73634;47.068;15.426;2024-02-14T00:25:20;9.50;;;2.70;;
83663;SDS011;73634;47.068;15.426;2024-02-14T00:27:45;6.35;;;2.17;;
83663;SDS011;73634;47.068;15.426;2024-02-14T00:30:11;4.88;;;1.50;;
83663;SDS011;73634;47.068;15.426;2024-02-14T00:32:36;4.72;;;1.17;;
83663;SDS011;73634;47.068;15.426;2024-02-14T00:35:02;5.30;;;2.10;;
83663;SDS011;73634;47.068;15.426;2024-02-14T00:37:27;6.30;;;2.17;;
83663;SDS011;73634;47.068;15.426;2024-02-14T00:39:53;5.05;;;1.77;;
83663;SDS011;73634;47.068;15.426;2024-02-14T00:42:20;5.88;;;1.95;;
83663;SDS011;73634;47.068;15.426;2024-02-14T00:44:46;7.22;;;1.90;;
83663;SDS011;73634;47.068;15.426;2024-02-14T00:47:11;4.55;;;1.27;;
83663;SDS011;73634;47.068;15.426;2024-02-14T00:51:51;3.58;;;1.33;;
83663;SDS011;73634;47.068;15.426;2024-02-14T00:54:16;6.90;;;1.90;;
83663;SDS011;73634;47.068;15.426;2024-02-14T00:56:42;6.53;;;1.80;;
83663;SDS011;73634;47.068;15.426;2024-02-14T00:59:07;3.90;;;1.40;;
83663;SDS011;73634;47.068;15.426;2024-02-14T01:01:33;5.55;;;1.65;;
83663;SDS011;73634;47.068;15.426;2024-02-14T01:03:58;5.68;;;2.00;;
83663;SDS011;73634;47.068;15.426;2024-02-14T01:06:24;4.72;;;1.20;;
83663;SDS011;73634;47.068;15.426;2024-02-14T01:08:49;8.13;;;1.95;;
83663;SDS011;73634;47.068;15.426;2024-02-14T01:11:15;4.45;;;1.65;;
83663;SDS011;73634;47.068;15.426;2024-02-14T01:13:40;5.38;;;2.03;;
83663;SDS011;73634;47.068;15.426;2024-02-14T01:18:03;2.97;;;0.90;;
83663;SDS011;73634;47.068;15.426;2024-02-14T01:20:28;4.15;;;1.30;;
83663;SDS011;73634;47.068;15.426;2024-02-14T01:22:54;3.60;;;1.67;;
83663;SDS011;73634;47.068;15.426;2024-02-14T01:25:19;3.42;;;1.50;;
83663;SDS011;73634;47.068;15.426;2024-02-14T01:27:45;5.93;;;1.25;;
83663;SDS011;73634;47.068;15.426;2024-02-14T01:30:10;4.78;;;1.52;;
83663;SDS011;73634;47.068;15.426;2024-02-14T01:32:36;4.57;;;1.70;;
83663;SDS011;73634;47.068;15.426;2024-02-14T01:35:02;3.30;;;1.17;;
83663;SDS011;73634;47.068;15.426;2024-02-14T01:37:29;3.25;;;1.20;;
83663;SDS011;73634;47.068;15.426;2024-02-14T01:39:54;3.33;;;1.48;;
83663;SDS011;73634;47.068;15.426;2024-02-14T01:43:28;2.33;;;0.90;;
83663;SDS011;73634;47.068;15.426;2024-02-14T01:45:54;3.35;;;1.10;;
83663;SDS011;73634;47.068;15.426;2024-02-14T01:48:20;2.88;;;1.20;;
83663;SDS011;73634;47.068;15.426;2024-02-14T01:50:46;4.85;;;1.30;;
83663;SDS011;73634;47.068;15.426;2024-02-14T01:53:11;4.45;;;1.02;;
83663;SDS011;73634;47.068;15.426;2024-02-14T01:55:38;4.05;;;1.00;;
83663;SDS011;73634;47.068;15.426;2024-02-14T01:58:03;3.00;;;0.80;;
83663;SDS011;73634;47.068;15.426;2024-02-14T02:00:29;4.15;;;1.20;;
83663;SDS011;73634;47.068;15.426;2024-02-14T02:02:56;3.30;;;1.20;;
83663;SDS011;73634;47.068;15.426;2024-02-14T02:05:22;2.83;;;0.88;;
83663;SDS011;73634;47.068;15.426;2024-02-14T02:11:09;4.53;;;1.10;;
83663;SDS011;73634;47.068;15.426;2024-02-14T02:13:35;3.92;;;1.10;;
83663;SDS011;73634;47.068;15.426;2024-02-14T02:16:01;5.55;;;1.40;;
83663;SDS011;73634;47.068;15.426;2024-02-14T02:18:30;4.10;;;1.20;;
83663;SDS011;73634;47.068;15.426;2024-02-14T02:20:56;2.70;;;0.80;;
83663;SDS011;73634;47.068;15.426;2024-02-14T02:23:22;2.30;;;1.00;;
83663;SDS011;73634;47.068;15.426;2024-02-14T02:25:47;3.22;;;1.00;;
83663;SDS011;73634;47.068;15.426;2024-02-14T02:28:13;3.25;;;0.90;;
83663;SDS011;73634;47.068;15.426;2024-02-14T02:30:39;6.40;;;1.60;;
83663;SDS011;73634;47.068;15.426;2024-02-14T02:35:42;5.65;;;2.38;;
83663;SDS011;73634;47.068;15.426;2024-02-14T02:38:10;6.43;;;2.38;;
83663;SDS011;73634;47.068;15.426;2024-02-14T02:40:35;7.80;;;3.45;;
83663;SDS011;73634;47.068;15.426;2024-02-14T02:43:02;10.43;;;3.03;;
83663;SDS011;73634;47.068;15.426;2024-02-14T02:45:28;8.80;;;2.95;;
83663;SDS011;73634;47.068;15.426;2024-02-14T02:47:53;6.50;;;2.60;;
83663;SDS011;73634;47.068;15.426;2024-02-14T02:50:20;7.32;;;3.00;;
83663;SDS011;73634;47.068;15.426;2024-02-14T02:52:47;7.15;;;2.90;;
83663;SDS011;73634;47.068;15.426;2024-02-14T02:55:12;9.65;;;2.92;;
83663;SDS011;73634;47.068;15.426;2024-02-14T02:57:40;7.05;;;3.40;;
83663;SDS011;73634;47.068;15.426;2024-02-14T03:00:06;7.03;;;3.05;;
83663;SDS011;73634;47.068;15.426;2024-02-14T03:03:38;12.38;;;4.50;;
83663;SDS011;73634;47.068;15.426;2024-02-14T03:06:04;7.15;;;3.05;;
83663;SDS011;73634;47.068;15.426;2024-02-14T03:08:30;7.35;;;2.90;;
83663;SDS011;73634;47.068;15.426;2024-02-14T03:10:55;20.27;;;7.25;;
83663;SDS011;73634;47.068;15.426;2024-02-14T03:13:24;12.32;;;5.82;;
83663;SDS011;73634;47.068;15.426;2024-02-14T03:15:51;7.82;;;3.47;;
83663;SDS011;73634;47.068;15.426;2024-02-14T03:18:17;3.58;;;1.40;;
83663;SDS011;73634;47.068;15.426;2024-02-14T03:20:42;5.10;;;1.08;;
83663;SDS011;73634;47.068;15.426;2024-02-14T03:23:08;2.85;;;1.10;;
83663;SDS011;73634;47.068;15.426;2024-02-14T03:25:33;3.17;;;1.17;;
83663;SDS011;73634;47.068;15.426;2024-02-14T03:29:19;5.68;;;1.13;;
83663;SDS011;73634;47.068;15.426;2024-02-14T03:31:46;3.25;;;0.98;;
83663;SDS011;73634;47.068;15.426;2024-02-14T03:34:12;5.03;;;1.33;;
83663;SDS011;73634;47.068;15.426;2024-02-14T03:36:38;3.30;;;1.20;;
83663;SDS011;73634;47.068;15.426;2024-02-14T03:39:04;3.17;;;1.10;;
83663;SDS011;73634;47.068;15.426;2024-02-14T03:41:30;2.78;;;1.15;;
83663;SDS011;73634;47.068;15.426;2024-02-14T03:43:56;3.72;;;0.95;;
83663;SDS011;73634;47.068;15.426;2024-02-14T03:46:25;4.07;;;1.10;;
83663;SDS011;73634;47.068;15.426;2024-02-14T03:48:54;7.05;;;1.35;;
83663;SDS011;73634;47.068;15.426;2024-02-14T03:51:19;3.83;;;1.10;;
83663;SDS011;73634;47.068;15.426;2024-02-14T03:55:15;2.45;;;1.08;;
83663;SDS011;73634;47.068;15.426;2024-02-14T03:57:42;2.80;;;1.05;;
83663;SDS011;73634;47.068;15.426;2024-02-14T04:00:10;3.83;;;0.90;;
83663;SDS011;73634;47.068;15.426;2024-02-14T04:02:36;3.70;;;0.90;;
83663;SDS011;73634;47.068;15.426;2024-02-14T04:05:01;3.50;;;0.90;;
83663;SDS011;73634;47.068;15.426;2024-02-14T04:07:32;4.97;;;1.02;;
83663;SDS011;73634;47.068;15.426;2024-02-14T04:09:59;3.25;;;1.25;;
83663;SDS011;73634;47.068;15.426;2024-02-14T04:12:24;4.22;;;1.00;;
83663;SDS011;73634;47.068;15.426;2024-02-14T04:14:49;3.15;;;1.15;;
83663;SDS011;73634;47.068;15.426;2024-02-14T04:19:47;3.22;;;1.10;;
83663;SDS011;73634;47.068;15.426;2024-02-14T04:22:12;4.18;;;0.90;;
83663;SDS011;73634;47.068;15.426;2024-02-14T04:24:38;3.42;;;1.25;;
83663;SDS011;73634;47.068;15.426;2024-02-14T04:27:03;6.05;;;1.15;;
83663;SDS011;73634;47.068;15.426;2024-02-14T04:29:29;4.90;;;1.00;;
83663;SDS011;73634;47.068;15.426;2024-02-14T04:31:57;3.63;;;0.98;;
83663;SDS011;73634;47.068;15.426;2024-02-14T04:34:23;5.07;;;1.20;;
83663;SDS011;73634;47.068;15.426;2024-02-14T04:36:49;4.07;;;1.15;;
83663;SDS011;73634;47.068;15.426;2024-02-14T04:39:14;3.90;;;1.50;;
83663;SDS011;73634;47.068;15.426;2024-02-14T04:44:43;7.65;;;1.52;;
83663;SDS011;73634;47.068;15.426;2024-02-14T04:47:09;6.05;;;1.60;;
83663;SDS011;73634;47.068;15.426;2024-02-14T04:49:37;3.25;;;0.98;;
83663;SDS011;73634;47.068;15.426;2024-02-14T04:52:03;4.20;;;1.48;;
83663;SDS011;73634;47.068;15.426;2024-02-14T04:54:29;4.80;;;0.90;;
83663;SDS011;73634;47.068;15.426;2024-02-14T04:56:54;3.33;;;1.13;;
83663;SDS011;73634;47.068;15.426;2024-02-14T04:59:20;3.53;;;1.15;;
83663;SDS011;73634;47.068;15.426;2024-02-14T05:01:45;3.63;;;1.13;;
83663;SDS011;73634;47.068;15.426;2024-02-14T05:04:11;3.03;;;1.02;;
83663;SDS011;73634;47.068;15.426;2024-02-14T05:09:15;3.45;;;0.90;;
83663;SDS011;73634;47.068;15.426;2024-02-14T05:11:41;2.67;;;1.00;;
83663;SDS011;73634;47.068;15.426;2024-02-14T05:14:06;3.30;;;1.15;;
83663;SDS011;73634;47.068;15.426;2024-02-14T05:16:32;2.55;;;1.02;;
83663;SDS011;73634;47.068;15.426;2024-02-14T05:18:57;5.85;;;1.65;;
83663;SDS011;73634;47.068;15.426;2024-02-14T05:21:23;3.30;;;1.35;;
83663;SDS011;73634;47.068;15.426;2024-02-14T05:23:48;7.00;;;1.95;;
83663;SDS011;73634;47.068;15.426;2024-02-14T05:26:14;6.43;;;1.63;;
83663;SDS011;73634;47.068;15.426;2024-02-14T05:31:28;3.17;;;1.33;;
83663;SDS011;73634;47.068;15.426;2024-02-14T05:34:08;4.97;;;1.50;;
83663;SDS011;73634;47.068;15.426;2024-02-14T05:36:34;4.63;;;1.55;;
83663;SDS011;73634;47.068;15.426;2024-02-14T05:39:00;6.32;;;1.48;;
83663;SDS011;73634;47.068;15.426;2024-02-14T05:41:25;6.85;;;1.35;;
83663;SDS011;73634;47.068;15.426;2024-02-14T05:43:51;3.25;;;1.40;;
83663;SDS011;73634;47.068;15.426;2024-02-14T05:46:16;7.57;;;1.63;;
83663;SDS011;73634;47.068;15.426;2024-02-14T05:48:41;5.22;;;1.50;;
83663;SDS011;73634;47.068;15.426;2024-02-14T05:51:07;2.95;;;0.93;;
83663;SDS011;73634;47.068;15.426;2024-02-14T05:54:51;2.22;;;0.77;;
83663;SDS011;73634;47.068;15.426;2024-02-14T05:57:17;4.15;;;1.27;;
83663;SDS011;73634;47.068;15.426;2024-02-14T05:59:42;5.30;;;1.27;;
83663;SDS011;73634;47.068;15.426;2024-02-14T06:02:07;4.15;;;1.50;;
83663;SDS011;73634;47.068;15.426;2024-02-14T06:04:34;6.65;;;1.88;;
83663;SDS011;73634;47.068;15.426;2024-02-14T06:07:00;4.68;;;1.08;;
83663;SDS011;73634;47.068;15.426;2024-02-14T06:09:26;5.00;;;1.58;;
83663;SDS011;73634;47.068;15.426;2024-02-14T06:11:52;3.08;;;1.02;;
83663;SDS011;73634;47.068;15.426;2024-02-14T06:14:18;6.60;;;1.52;;
83663;SDS011;73634;47.068;15.426;2024-02-14T06:16:44;6.60;;;1.33;;
83663;SDS011;73634;47.068;15.426;2024-02-14T06:20:47;2.72;;;0.93;;
83663;SDS011;73634;47.068;15.426;2024-02-14T06:23:12;5.70;;;1.50;;
83663;SDS011;73634;47.068;15.426;2024-02-14T06:25:38;3.78;;;1.45;;
83663;SDS011;73634;47.068;15.426;2024-02-14T06:28:03;7.32;;;1.50;;
83663;SDS011;73634;47.068;15.426;2024-02-14T06:30:28;2.95;;;1.25;;
83663;SDS011;73634;47.068;15.426;2024-02-14T06:32:54;4.30;;;1.00;;
83663;SDS011;73634;47.068;15.426;2024-02-14T06:35:19;5.45;;;1.58;;
83663;SDS011;73634;47.068;15.426;2024-02-14T06:37:46;3.25;;;1.08;;
83663;SDS011;73634;47.068;15.426;2024-02-14T06:40:11;6.38;;;1.50;;
83663;SDS011;73634;47.068;15.426;2024-02-14T06:42:37;5.93;;;1.20;;
83663;SDS011;73634;47.068;15.426;2024-02-14T06:45:58;4.28;;;1.20;;
83663;SDS011;73634;47.068;15.426;2024-02-14T06:48:24;5.45;;;1.88;;
83663;SDS011;73634;47.068;15.426;2024-02-14T06:50:50;7.50;;;1.80;;
83663;SDS011;73634;47.068;15.426;2024-02-14T06:53:16;7.63;;;1.80;;
83663;SDS011;73634;47.068;15.426;2024-02-14T06:55:42;6.78;;;1.92;;
83663;SDS011;73634;47.068;15.426;2024-02-14T06:58:07;4.60;;;1.30;;
83663;SDS011;73634;47.068;15.426;2024-02-14T07:00:33;3.97;;;1.50;;
83663;SDS011;73634;47.068;15.426;2024-02-14T07:02:58;4.63;;;2.05;;
83663;SDS011;73634;47.068;15.426;2024-02-14T07:07:56;7.82;;;2.22;;
83663;SDS011;73634;47.068;15.426;2024-02-14T07:10:21;7.10;;;1.90;;
83663;SDS011;73634;47.068;15.426;2024-02-14T07:12:47;7.45;;;2.97;;
83663;SDS011;73634;47.068;15.426;2024-02-14T07:15:12;8.63;;;2.90;;
83663;SDS011;73634;47.068;15.426;2024-02-14T07:17:38;10.55;;;3.92;;
83663;SDS011;73634;47.068;15.426;2024-02-14T07:20:04;9.82;;;3.97;;
83663;SDS011;73634;47.068;15.426;2024-02-14T07:22:30;13.00;;;5.88;;
83663;SDS011;73634;47.068;15.426;2024-02-14T07:24:56;17.17;;;6.85;;
83663;SDS011;73634;47.068;15.426;2024-02-14T07:29:53;13.30;;;5.28;;
83663;SDS011;73634;47.068;15.426;2024-02-14T07:32:19;12.88;;;5.85;;
83663;SDS011;73634;47.068;15.426;2024-02-14T07:34:45;12.77;;;5.38;;
83663;SDS011;73634;47.068;15.426;2024-02-14T07:37:11;13.48;;;5.75;;
83663;SDS011;73634;47.068;15.426;2024-02-14T07:39:36;12.25;;;4.85;;
83663;SDS011;73634;47.068;15.426;2024-02-14T07:42:02;7.78;;;4.75;;
83663;SDS011;73634;47.068;15.426;2024-02-14T07:44:27;12.55;;;4.90;;
83663;SDS011;73634;47.068;15.426;2024-02-14T07:46:53;14.40;;;6.15;;
83663;SDS011;73634;47.068;15.426;2024-02-14T07:49:18;10.63;;;4.93;;
83663;SDS011;73634;47.068;15.426;2024-02-14T07:51:44;10.90;;;4.63;;
83663;SDS011;73634;47.068;15.426;2024-02-14T07:55:49;12.27;;;4.07;;
83663;SDS011;73634;47.068;15.426;2024-02-14T07:58:15;10.52;;;3.78;;
83663;SDS011;73634;47.068;15.426;2024-02-14T08:00:40;9.05;;;4.00;;
83663;SDS011;73634;47.068;15.426;2024-02-14T08:03:05;12.45;;;4.65;;
83663;SDS011;73634;47.068;15.426;2024-02-14T08:05:31;13.77;;;4.55;;
83663;SDS011;73634;47.068;15.426;2024-02-14T08:07:56;15.27;;;5.13;;
83663;SDS011;73634;47.068;15.426;2024-02-14T08:10:22;10.13;;;4.93;;
83663;SDS011;73634;47.068;15.426;2024-02-14T08:12:47;11.75;;;4.72;;
83663;SDS011;73634;47.068;15.426;2024-02-14T08:15:12;8.35;;;4.63;;
83663;SDS011;73634;47.068;15.426;2024-02-14T08:17:38;12.43;;;4.22;;
83663;SDS011;73634;47.068;15.426;2024-02-14T08:20:03;9.85;;;4.40;;
83663;SDS011;73634;47.068;15.426;2024-02-14T08:24:46;10.55;;;4.70;;
83663;SDS011;73634;47.068;15.426;2024-02-14T08:27:11;10.45;;;5.35;;
83663;SDS011;73634;47.068;15.426;2024-02-14T08:29:36;11.05;;;4.78;;
83663;SDS011;73634;47.068;15.426;2024-02-14T08:32:02;12.60;;;5.28;;
83663;SDS011;73634;47.068;15.426;2024-02-14T08:34:28;12.45;;;6.07;;
83663;SDS011;73634;47.068;15.426;2024-02-14T08:36:54;12.55;;;6.20;;
83663;SDS011;73634;47.068;15.426;2024-02-14T08:39:19;10.38;;;5.47;;
83663;SDS011;73634;47.068;15.426;2024-02-14T08:41:45;11.63;;;5.30;;
83663;SDS011;73634;47.068;15.426;2024-02-14T08:44:12;9.93;;;4.53;;
83663;SDS011;73634;47.068;15.426;2024-02-14T08:48:27;11.68;;;4.65;;
83663;SDS011;73634;47.068;15.426;2024-02-14T08:50:54;10.98;;;5.55;;
83663;SDS011;73634;47.068;15.426;2024-02-14T08:53:20;10.55;;;4.75;;
83663;SDS011;73634;47.068;15.426;2024-02-14T08:55:46;8.50;;;3.58;;
83663;SDS011;73634;47.068;15.426;2024-02-14T08:58:11;15.57;;;4.07;;
83663;SDS011;73634;47.068;15.426;2024-02-14T09:00:36;8.63;;;3.50;;
83663;SDS011;73634;47.068;15.426;2024-02-14T09:03:03;7.97;;;3.10;;
83663;SDS011;73634;47.068;15.426;2024-02-14T09:05:29;12.35;;;3.42;;
83663;SDS011;73634;47.068;15.426;2024-02-14T09:07:54;9.77;;;2.97;;
83663;SDS011;73634;47.068;15.426;2024-02-14T09:13:08;7.85;;;4.00;;
83663;SDS011;73634;47.068;15.426;2024-02-14T09:15:34;10.10;;;3.28;;
83663;SDS011;73634;47.068;15.426;2024-02-14T09:17:59;6.55;;;3.50;;
83663;SDS011;73634;47.068;15.426;2024-02-14T09:20:25;6.20;;;2.70;;
83663;SDS011;73634;47.068;15.426;2024-02-14T09:22:51;7.20;;;2.60;;
83663;SDS011;73634;47.068;15.426;2024-02-14T09:25:16;6.22;;;2.55;;
83663;SDS011;73634;47.068;15.426;2024-02-14T09:27:41;6.78;;;2.08;;
83663;SDS011;73634;47.068;15.426;2024-02-14T09:30:08;5.00;;;2.15;;
83663;SDS011;73634;47.068;15.426;2024-02-14T09:32:34;5.55;;;2.38;;
83663;SDS011;73634;47.068;15.426;2024-02-14T09:37:03;7.65;;;2.72;;
83663;SDS011;73634;47.068;15.426;2024-02-14T09:39:31;6.97;;;2.83;;
83663;SDS011;73634;47.068;15.426;2024-02-14T09:41:58;6.22;;;2.83;;
83663;SDS011;73634;47.068;15.426;2024-02-14T09:44:30;8.52;;;3.28;;
83663;SDS011;73634;47.068;15.426;2024-02-14T09:46:57;7.68;;;4.07;;
83663;SDS011;73634;47.068;15.426;2024-02-14T09:49:24;9.40;;;4.38;;
83663;SDS011;73634;47.068;15.426;2024-02-14T09:51:50;8.75;;;3.53;;
83663;SDS011;73634;47.068;15.426;2024-02-14T09:54:17;6.60;;;3.67;;
83663;SDS011;73634;47.068;15.426;2024-02-14T09:56:47;7.72;;;3.22;;
83663;SDS011;73634;47.068;15.426;2024-02-14T10:02:13;8.27;;;4.63;;
83663;SDS011;73634;47.068;15.426;2024-02-14T10:04:38;10.18;;;3.50;;
83663;SDS011;73634;47.068;15.426;2024-02-14T10:07:04;7.10;;;3.75;;
83663;SDS011;73634;47.068;15.426;2024-02-14T10:09:30;6.80;;;3.95;;
83663;SDS011;73634;47.068;15.426;2024-02-14T10:11:55;10.38;;;5.10;;
83663;SDS011;73634;47.068;15.426;2024-02-14T10:14:22;9.48;;;5.72;;
83663;SDS011;73634;47.068;15.426;2024-02-14T10:16:48;9.05;;;5.60;;
83663;SDS011;73634;47.068;15.426;2024-02-14T10:19:14;8.98;;;5.15;;
83663;SDS011;73634;47.068;15.426;2024-02-14T10:21:40;8.38;;;4.30;;
83663;SDS011;73634;47.068;15.426;2024-02-14T10:27:06;11.57;;;4.25;;
83663;SDS011;73634;47.068;15.426;2024-02-14T10:29:33;8.63;;;4.43;;
83663;SDS011;73634;47.068;15.426;2024-02-14T10:31:59;8.90;;;4.75;;
83663;SDS011;73634;47.068;15.426;2024-02-14T10:34:25;11.82;;;4.97;;
83663;SDS011;73634;47.068;15.426;2024-02-14T10:36:52;8.80;;;4.55;;
83663;SDS011;73634;47.068;15.426;2024-02-14T10:39:18;10.18;;;3.78;;
83663;SDS011;73634;47.068;15.426;2024-02-14T10:41:44;7.80;;;4.45;;
83663;SDS011;73634;47.068;15.426;2024-02-14T10:44:09;9.15;;;4.70;;
83663;SDS011;73634;47.068;15.426;2024-02-14T10:46:36;8.07;;;4.07;;
83663;SDS011;73634;47.068;15.426;2024-02-14T10:51:39;10.40;;;4.53;;
83663;SDS011;73634;47.068;15.426;2024-02-14T10:54:10;6.00;;;3.83;;
83663;SDS011;73634;47.068;15.426;2024-02-14T10:56:38;8.75;;;4.07;;
83663;SDS011;73634;47.068;15.426;2024-02-14T10:59:05;6.35;;;3.42;;
83663;SDS011;73634;47.068;15.426;2024-02-14T11:01:34;8.65;;;3.33;;
83663;SDS011;73634;47.068;15.426;2024-02-14T11:04:01;8.98;;;3.75;;
83663;SDS011;73634;47.068;15.426;2024-02-14T11:06:29;7.65;;;3.97;;
83663;SDS011;73634;47.068;15.426;2024-02-14T11:09:00;5.50;;;3.25;;
83663;SDS011;73634;47.068;15.426;2024-02-14T11:11:32;7.97;;;4.40;;
83663;SDS011;73634;47.068;15.426;2024-02-14T11:16:22;8.15;;;3.33;;
83663;SDS011;73634;47.068;15.426;2024-02-14T11:18:53;8.50;;;4.18;;
83663;SDS011;73634;47.068;15.426;2024-02-14T11:21:41;6.43;;;3.55;;
83663;SDS011;73634;47.068;15.426;2024-02-14T11:24:13;5.68;;;4.70;;
83663;SDS011;73634;47.068;15.426;2024-02-14T11:26:46;5.70;;;4.07;;
83663;SDS011;73634;47.068;15.426;2024-02-14T11:29:15;6.82;;;3.33;;
83663;SDS011;73634;47.068;15.426;2024-02-14T11:31:46;7.18;;;3.45;;
83663;SDS011;73634;47.068;15.426;2024-02-14T11:34:15;7.88;;;3.53;;
83663;SDS011;73634;47.068;15.426;2024-02-14T11:36:44;8.07;;;4.78;;
83663;SDS011;73634;47.068;15.426;2024-02-14T11:40:46;4.53;;;2.70;;
83663;SDS011;73634;47.068;15.426;2024-02-14T11:43:12;6.65;;;3.20;;
83663;SDS011;73634;47.068;15.426;2024-02-14T11:45:45;6.32;;;2.97;;
83663;SDS011;73634;47.068;15.426;2024-02-14T11:48:14;6.13;;;3.70;;
83663;SDS011;73634;47.068;15.426;2024-02-14T11:50:40;5.47;;;2.40;;
83663;SDS011;73634;47.068;15.426;2024-02-14T11:53:06;5.57;;;2.45;;
83663;SDS011;73634;47.068;15.426;2024-02-14T11:55:35;12.00;;;2.92;;
83663;SDS011;73634;47.068;15.426;2024-02-14T11:58:02;5.22;;;2.90;;
83663;SDS011;73634;47.068;15.426;2024-02-14T12:00:28;6.22;;;3.30;;
83663;SDS011;73634;47.068;15.426;2024-02-14T12:04:42;7.22;;;2.97;;
83663;SDS011;73634;47.068;15.426;2024-02-14T12:07:08;6.85;;;2.88;;
83663;SDS011;73634;47.068;15.426;2024-02-14T12:09:34;9.52;;;2.65;;
83663;SDS011;73634;47.068;15.426;2024-02-14T12:12:00;7.03;;;3.28;;
83663;SDS011;73634;47.068;15.426;2024-02-14T12:14:26;5.75;;;2.67;;
83663;SDS011;73634;47.068;15.426;2024-02-14T12:16:56;6.47;;;3.53;;
83663;SDS011;73634;47.068;15.426;2024-02-14T12:19:27;5.25;;;2.05;;
83663;SDS011;73634;47.068;15.426;2024-02-14T12:21:53;9.57;;;3.20;;
83663;SDS011;73634;47.068;15.426;2024-02-14T12:24:20;5.07;;;2.20;;
83663;SDS011;73634;47.068;15.426;2024-02-14T12:29:23;4.22;;;1.80;;
83663;SDS011;73634;47.068;15.426;2024-02-14T12:31:49;6.63;;;2.28;;
83663;SDS011;73634;47.068;15.426;2024-02-14T12:34:14;9.65;;;3.80;;
83663;SDS011;73634;47.068;15.426;2024-02-14T12:36:39;5.28;;;2.15;;
83663;SDS011;73634;47.068;15.426;2024-02-14T12:39:05;5.20;;;1.83;;
83663;SDS011;73634;47.068;15.426;2024-02-14T12:41:31;4.72;;;2.80;;
83663;SDS011;73634;47.068;15.426;2024-02-14T12:43:58;6.13;;;2.85;;
83663;SDS011;73634;47.068;15.426;2024-02-14T12:46:25;5.28;;;0.90;;
83663;SDS011;73634;47.068;15.426;2024-02-14T12:48:50;2.60;;;0.85;;
83663;SDS011;73634;47.068;15.426;2024-02-14T12:54:33;3.75;;;0.88;;
83663;SDS011;73634;47.068;15.426;2024-02-14T12:56:58;2.83;;;0.98;;
83663;SDS011;73634;47.068;15.426;2024-02-14T12:59:24;3.95;;;1.20;;
83663;SDS011;73634;47.068;15.426;2024-02-14T13:01:49;4.07;;;1.00;;
83663;SDS011;73634;47.068;15.426;2024-02-14T13:04:15;3.03;;;0.90;;
83663;SDS011;73634;47.068;15.426;2024-02-14T13:06:41;3.22;;;0.93;;
83663;SDS011;73634;47.068;15.426;2024-02-14T13:09:07;2.92;;;0.93;;
83663;SDS011;73634;47.068;15.426;2024-02-14T13:11:33;4.25;;;1.50;;
83663;SDS011;73634;47.068;15.426;2024-02-14T13:15:44;1.52;;;0.40;;
83663;SDS011;73634;47.068;15.426;2024-02-14T13:18:09;5.15;;;0.70;;
83663;SDS011;73634;47.068;15.426;2024-02-14T13:20:35;2.88;;;0.82;;
83663;SDS011;73634;47.068;15.426;2024-02-14T13:23:02;5.07;;;1.23;;
83663;SDS011;73634;47.068;15.426;2024-02-14T13:25:28;3.40;;;1.10;;
83663;SDS011;73634;47.068;15.426;2024-02-14T13:27:54;3.47;;;1.10;;
83663;SDS011;73634;47.068;15.426;2024-02-14T13:30:20;6.88;;;1.77;;
83663;SDS011;73634;47.068;15.426;2024-02-14T13:32:46;3.40;;;1.23;;
83663;SDS011;73634;47.068;15.426;2024-02-14T13:36:24;4.55;;;1.30;;
83663;SDS011;73634;47.068;15.426;2024-02-14T13:38:50;4.35;;;1.10;;
83663;SDS011;73634;47.068;15.426;2024-02-14T13:41:15;5.22;;;1.10;;
83663;SDS011;73634;47.068;15.426;2024-02-14T13:43:41;4.72;;;1.40;;
83663;SDS011;73634;47.068;15.426;2024-02-14T13:46:07;3.80;;;0.77;;
83663;SDS011;73634;47.068;15.426;2024-02-14T13:48:34;4.20;;;1.25;;
83663;SDS011;73634;47.068;15.426;2024-02-14T13:51:00;4.68;;;1.05;;
83663;SDS011;73634;47.068;15.426;2024-02-14T13:53:26;3.83;;;1.00;;
83663;SDS011;73634;47.068;15.426;2024-02-14T13:55:51;3.42;;;0.88;;
83663;SDS011;73634;47.068;15.426;2024-02-14T13:59:50;3.08;;;1.02;;
83663;SDS011;73634;47.068;15.426;2024-02-14T14:02:15;3.38;;;0.75;;
83663;SDS011;73634;47.068;15.426;2024-02-14T14:04:41;3.08;;;0.90;;
83663;SDS011;73634;47.068;15.426;2024-02-14T14:07:06;4.80;;;1.10;;
83663;SDS011;73634;47.068;15.426;2024-02-14T14:09:33;3.45;;;1.13;;
83663;SDS011;73634;47.068;15.426;2024-02-14T14:11:58;2.97;;;0.90;;
83663;SDS011;73634;47.068;15.426;2024-02-14T14:14:23;2.03;;;1.10;;
83663;SDS011;73634;47.068;15.426;2024-02-14T14:16:52;4.20;;;1.15;;
83663;SDS011;73634;47.068;15.426;2024-02-14T14:19:17;3.42;;;1.08;;
83663;SDS011;73634;47.068;15.426;2024-02-14T14:21:43;3.00;;;0.90;;
83663;SDS011;73634;47.068;15.426;2024-02-14T14:26:16;3.33;;;0.95;;
83663;SDS011;73634;47.068;15.426;2024-02-14T14:28:41;2.35;;;0.80;;
83663;SDS011;73634;47.068;15.426;2024-02-14T14:31:07;4.38;;;1.00;;
83663;SDS011;73634;47.068;15.426;2024-02-14T14:33:36;3.25;;;1.33;;
83663;SDS011;73634;47.068;15.426;2024-02-14T14:36:01;4.88;;;1.20;;
83663;SDS011;73634;47.068;15.426;2024-02-14T14:38:28;3.83;;;1.02;;
83663;SDS011;73634;47.068;15.426;2024-02-14T14:40:54;2.10;;;0.77;;
83663;SDS011;73634;47.068;15.426;2024-02-14T14:43:20;3.20;;;0.80;;
83663;SDS011;73634;47.068;15.426;2024-02-14T14:45:46;4.45;;;1.40;;
83663;SDS011;73634;47.068;15.426;2024-02-14T14:48:11;3.42;;;1.20;;
83663;SDS011;73634;47.068;15.426;2024-02-14T14:50:37;5.13;;;1.10;;
83663;SDS011;73634;47.068;15.426;2024-02-14T14:55:12;6.18;;;1.83;;
83663;SDS011;73634;47.068;15.426;2024-02-14T14:57:38;3.75;;;1.00;;
83663;SDS011;73634;47.068;15.426;2024-02-14T15:00:09;4.57;;;1.00;;
83663;SDS011;73634;47.068;15.426;2024-02-14T15:02:39;2.53;;;0.90;;
83663;SDS011;73634;47.068;15.426;2024-02-14T15:05:09;6.47;;;1.27;;
83663;SDS011;73634;47.068;15.426;2024-02-14T15:07:36;3.13;;;1.00;;
83663;SDS011;73634;47.068;15.426;2024-02-14T15:10:02;3.33;;;0.80;;
83663;SDS011;73634;47.068;15.426;2024-02-14T15:12:28;5.50;;;1.10;;
83663;SDS011;73634;47.068;15.426;2024-02-14T15:14:53;5.25;;;1.00;;
83663;SDS011;73634;47.068;15.426;2024-02-14T15:19:56;6.43;;;1.80;;
83663;SDS011;73634;47.068;15.426;2024-02-14T15:22:22;5.60;;;1.40;;
83663;SDS011;73634;47.068;15.426;2024-02-14T15:24:50;3.83;;;0.98;;
83663;SDS011;73634;47.068;15.426;2024-02-14T15:27:16;3.80;;;1.25;;
83663;SDS011;73634;47.068;15.426;2024-02-14T15:29:48;5.10;;;1.15;;
83663;SDS011;73634;47.068;15.426;2024-02-14T15:32:36;5.80;;;1.20;;
83663;SDS011;73634;47.068;15.426;2024-02-14T15:35:19;4.07;;;1.00;;
83663;SDS011;73634;47.068;15.426;2024-02-14T15:37:45;3.05;;;0.88;;
83663;SDS011;73634;47.068;15.426;2024-02-14T15:40:13;5.07;;;0.75;;
83663;SDS011;73634;47.068;15.426;2024-02-14T15:42:42;9.93;;;3.05;;
83663;SDS011;73634;47.068;15.426;2024-02-14T15:48:06;10.48;;;3.65;;
83663;SDS011;73634;47.068;15.426;2024-02-14T15:50:32;8.95;;;3.30;;